Time,TemperatureF,DewpointF,PressureIn,WindDirection,WindDirectionDegrees,WindSpeedMPH,WindSpeedGustMPH,Humidity,HourlyPrecipIn,Conditions,Clouds,dailyrainin,SolarRadiationWatts/m^2,SoftwareType,DateUTC
2013-08-24 00:03:00,57.7,53.6,29.96,WSW,246,2.0,7.0,86,0.00,,,0.00,0.0,meteohub,2013-08-24 07:03:00,
2013-08-24 00:08:00,57.6,53.4,29.96,West,263,0.0,7.0,86,0.00,,,0.00,0.0,meteohub,2013-08-24 07:08:00,
2013-08-24 00:13:00,57.6,53.4,29.96,WSW,242,1.0,7.0,86,0.00,,,0.00,0.0,meteohub,2013-08-24 07:13:00,
2013-08-24 00:18:00,57.6,53.4,29.96,SW,232,3.0,5.0,86,0.00,,,0.00,0.0,meteohub,2013-08-24 07:18:00,
2013-08-24 00:23:00,57.6,53.4,29.96,West,263,0.0,5.0,86,0.00,,,0.00,0.0,meteohub,2013-08-24 07:23:00,
2013-08-24 00:28:00,57.6,53.4,29.96,SW,226,1.0,4.0,86,0.00,,,0.00,0.0,meteohub,2013-08-24 07:28:00,
2013-08-24 00:33:00,57.6,53.4,29.96,SW,232,0.0,4.0,86,0.00,,,0.00,0.0,meteohub,2013-08-24 07:33:00,
2013-08-24 00:38:00,57.6,53.4,29.96,SW,232,0.0,5.0,86,0.00,,,0.00,0.0,meteohub,2013-08-24 07:38:00,
2013-08-24 00:43:00,57.6,53.4,29.96,SW,234,0.0,5.0,86,0.00,,,0.00,0.0,meteohub,2013-08-24 07:43:00,
2013-08-24 00:48:00,57.6,53.4,29.96,WSW,242,0.0,4.0,86,0.00,,,0.00,0.0,meteohub,2013-08-24 07:48:00,
2013-08-24 00:53:00,57.6,53.4,29.96,WSW,239,2.0,5.0,86,0.00,,,0.00,0.0,meteohub,2013-08-24 07:53:00,
2013-08-24 00:59:00,57.6,53.4,29.96,West,266,4.0,5.0,86,0.00,,,0.00,0.0,meteohub,2013-08-24 07:59:00,
2013-08-24 01:04:00,57.6,53.4,29.96,WSW,247,5.0,5.0,86,0.00,,,0.00,0.0,meteohub,2013-08-24 08:04:00,
2013-08-24 01:09:00,57.7,53.6,29.96,WSW,242,4.0,7.0,86,0.00,,,0.00,0.0,meteohub,2013-08-24 08:09:00,
2013-08-24 01:14:00,57.7,53.6,29.96,WSW,257,0.0,7.0,86,0.00,,,0.00,0.0,meteohub,2013-08-24 08:14:00,
2013-08-24 01:19:00,57.7,53.6,29.96,SW,236,2.0,7.0,86,0.00,,,0.00,0.0,meteohub,2013-08-24 08:19:00,
2013-08-24 01:24:00,57.6,53.4,29.96,WSW,243,5.0,6.0,86,0.00,,,0.00,0.0,meteohub,2013-08-24 08:24:00,
2013-08-24 01:29:00,57.6,53.8,29.96,SW,236,3.0,6.0,87,0.00,,,0.00,0.0,meteohub,2013-08-24 08:29:00,
2013-08-24 01:34:00,57.6,53.8,29.96,SW,217,5.0,8.0,87,0.00,,,0.00,0.0,meteohub,2013-08-24 08:34:00,
2013-08-24 01:39:00,57.6,53.8,29.96,SW,234,1.0,8.0,87,0.00,,,0.00,0.0,meteohub,2013-08-24 08:39:00,
2013-08-24 01:44:00,57.6,53.4,29.96,WSW,248,5.0,8.0,86,0.00,,,0.00,0.0,meteohub,2013-08-24 08:44:00,
2013-08-24 01:49:00,57.4,53.2,29.96,SW,227,2.0,6.0,86,0.00,,,0.00,0.0,meteohub,2013-08-24 08:49:00,
2013-08-24 01:54:00,57.4,53.6,29.96,SSW,207,5.0,6.0,87,0.00,,,0.00,0.0,meteohub,2013-08-24 08:54:00,
2013-08-24 01:59:00,57.4,53.2,29.96,SSW,210,1.0,9.0,86,0.00,,,0.00,0.0,meteohub,2013-08-24 08:59:00,
2013-08-24 02:04:00,57.4,53.6,29.96,SW,235,1.0,9.0,87,0.00,,,0.00,0.0,meteohub,2013-08-24 09:04:00,
2013-08-24 02:09:00,57.4,53.6,29.96,WSW,254,4.0,9.0,87,0.00,,,0.00,0.0,meteohub,2013-08-24 09:09:00,
2013-08-24 02:14:00,57.6,53.8,29.96,WSW,244,0.0,6.0,87,0.00,,,0.00,0.0,meteohub,2013-08-24 09:14:00,
2013-08-24 02:19:00,57.6,53.8,29.96,South,173,2.0,8.0,87,0.00,,,0.00,0.0,meteohub,2013-08-24 09:19:00,
2013-08-24 02:24:00,57.6,53.8,29.96,WNW,302,5.0,8.0,87,0.00,,,0.00,0.0,meteohub,2013-08-24 09:24:00,
2013-08-24 02:29:00,57.6,53.8,29.96,WSW,257,1.0,8.0,87,0.00,,,0.00,0.0,meteohub,2013-08-24 09:29:00,
2013-08-24 02:34:00,57.6,53.8,29.96,WSW,248,3.0,8.0,87,0.00,,,0.00,0.0,meteohub,2013-08-24 09:34:00,
2013-08-24 02:39:00,57.6,53.8,29.96,WSW,245,0.0,8.0,87,0.00,,,0.00,0.0,meteohub,2013-08-24 09:39:00,
2013-08-24 02:44:00,57.4,53.6,29.96,SW,231,1.0,9.0,87,0.00,,,0.00,0.0,meteohub,2013-08-24 09:44:00,
2013-08-24 02:49:00,57.4,53.6,29.96,West,269,4.0,9.0,87,0.00,,,0.00,0.0,meteohub,2013-08-24 09:49:00,
2013-08-24 02:54:00,57.4,53.8,29.96,WNW,289,3.0,9.0,88,0.00,,,0.00,0.0,meteohub,2013-08-24 09:54:00,
2013-08-24 02:59:00,57.2,53.6,29.96,SW,215,5.0,7.0,88,0.00,,,0.00,0.0,meteohub,2013-08-24 09:59:00,
2013-08-24 03:05:00,57.2,53.6,29.96,WSW,248,3.0,10.0,88,0.00,,,0.00,0.0,meteohub,2013-08-24 10:05:00,
2013-08-24 03:10:00,57.0,53.4,29.96,WSW,237,3.0,10.0,88,0.00,,,0.00,0.0,meteohub,2013-08-24 10:10:00,
2013-08-24 03:15:00,57.0,53.4,29.96,WSW,241,3.0,10.0,88,0.00,,,0.00,0.0,meteohub,2013-08-24 10:15:00,
2013-08-24 03:20:00,57.0,53.4,29.96,West,272,5.0,10.0,88,0.00,,,0.00,0.0,meteohub,2013-08-24 10:20:00,
2013-08-24 03:25:00,57.0,53.4,29.96,West,265,3.0,10.0,88,0.00,,,0.00,0.0,meteohub,2013-08-24 10:25:00,
2013-08-24 03:30:00,57.0,53.4,29.96,WSW,246,4.0,10.0,88,0.00,,,0.00,0.0,meteohub,2013-08-24 10:30:00,
2013-08-24 03:35:00,57.0,53.4,29.96,SW,219,5.0,8.0,88,0.00,,,0.00,0.0,meteohub,2013-08-24 10:35:00,
2013-08-24 03:40:00,57.0,53.4,29.97,WSW,242,7.0,8.0,88,0.00,,,0.00,0.0,meteohub,2013-08-24 10:40:00,
2013-08-24 03:45:00,57.0,53.4,29.97,West,277,3.0,7.0,88,0.00,,,0.00,0.0,meteohub,2013-08-24 10:45:00,
2013-08-24 03:50:00,56.8,53.2,29.97,West,265,7.0,9.0,88,0.00,,,0.00,0.0,meteohub,2013-08-24 10:50:00,
2013-08-24 03:55:00,56.8,53.2,29.97,West,261,6.0,9.0,88,0.00,,,0.00,0.0,meteohub,2013-08-24 10:55:00,
2013-08-24 04:00:00,56.8,53.6,29.97,WSW,246,0.0,9.0,89,0.00,,,0.00,0.0,meteohub,2013-08-24 11:00:00,
2013-08-24 04:05:00,56.8,53.6,29.97,WSW,258,2.0,9.0,89,0.00,,,0.00,0.0,meteohub,2013-08-24 11:05:00,
2013-08-24 04:10:00,56.8,53.6,29.97,SW,221,2.0,9.0,89,0.00,,,0.00,0.0,meteohub,2013-08-24 11:10:00,
2013-08-24 04:15:00,56.8,53.6,29.97,WNW,292,1.0,9.0,89,0.00,,,0.00,0.0,meteohub,2013-08-24 11:15:00,
2013-08-24 04:20:00,56.8,53.6,29.96,WSW,250,3.0,8.0,89,0.00,,,0.00,0.0,meteohub,2013-08-24 11:20:00,
2013-08-24 04:25:00,56.8,53.6,29.96,WNW,283,2.0,8.0,89,0.00,,,0.00,0.0,meteohub,2013-08-24 11:25:00,
2013-08-24 04:30:00,56.7,53.4,29.96,SW,224,1.0,8.0,89,0.00,,,0.00,0.0,meteohub,2013-08-24 11:30:00,
2013-08-24 04:35:00,56.7,53.4,29.96,WSW,239,3.0,6.0,89,0.00,,,0.00,0.0,meteohub,2013-08-24 11:35:00,
2013-08-24 04:40:00,56.7,53.4,29.96,WSW,253,3.0,7.0,89,0.00,,,0.00,0.0,meteohub,2013-08-24 11:40:00,
2013-08-24 04:45:00,56.8,53.6,29.96,SW,217,5.0,9.0,89,0.00,,,0.00,0.0,meteohub,2013-08-24 11:45:00,
2013-08-24 04:50:00,56.7,53.4,29.96,SSW,206,2.0,10.0,89,0.00,,,0.00,0.0,meteohub,2013-08-24 11:50:00,
2013-08-24 04:55:00,56.7,53.4,29.96,WSW,244,2.0,10.0,89,0.00,,,0.00,0.0,meteohub,2013-08-24 11:55:00,
2013-08-24 05:00:00,56.7,53.4,29.96,West,267,3.0,9.0,89,0.00,,,0.00,0.0,meteohub,2013-08-24 12:00:00,
2013-08-24 05:05:00,56.7,53.4,29.96,West,265,4.0,8.0,89,0.00,,,0.00,0.0,meteohub,2013-08-24 12:05:00,
2013-08-24 05:10:00,56.7,53.4,29.96,WSW,238,3.0,7.0,89,0.00,,,0.00,0.0,meteohub,2013-08-24 12:10:00,
2013-08-24 05:16:00,56.7,53.4,29.96,West,261,4.0,8.0,89,0.00,,,0.00,0.0,meteohub,2013-08-24 12:16:00,
2013-08-24 05:21:00,56.8,53.6,29.96,WSW,240,1.0,8.0,89,0.00,,,0.00,0.0,meteohub,2013-08-24 12:21:00,
2013-08-24 05:26:00,56.7,53.4,29.96,WSW,252,3.0,8.0,89,0.00,,,0.00,0.0,meteohub,2013-08-24 12:26:00,
2013-08-24 05:31:00,56.7,53.4,29.96,SW,234,3.0,7.0,89,0.00,,,0.00,0.0,meteohub,2013-08-24 12:31:00,
2013-08-24 05:36:00,56.7,53.8,29.96,SW,227,0.0,7.0,90,0.00,,,0.00,0.0,meteohub,2013-08-24 12:36:00,
2013-08-24 05:41:00,56.7,53.8,29.96,WSW,244,1.0,7.0,90,0.00,,,0.00,0.0,meteohub,2013-08-24 12:41:00,
2013-08-24 05:46:00,56.7,53.8,29.96,WSW,246,2.0,7.0,90,0.00,,,0.00,0.0,meteohub,2013-08-24 12:46:00,
2013-08-24 05:51:00,56.8,54.0,29.96,West,265,3.0,7.0,90,0.00,,,0.00,0.0,meteohub,2013-08-24 12:51:00,
2013-08-24 05:56:00,56.7,53.4,29.96,SW,229,6.0,6.0,89,0.00,,,0.00,0.0,meteohub,2013-08-24 12:56:00,
2013-08-24 06:01:00,56.8,53.6,29.97,SSW,213,3.0,9.0,89,0.00,,,0.00,0.0,meteohub,2013-08-24 13:01:00,
2013-08-24 06:06:00,56.8,54.0,29.97,SW,216,1.0,9.0,90,0.00,,,0.00,0.0,meteohub,2013-08-24 13:06:00,
2013-08-24 06:11:00,56.8,54.0,29.97,WSW,249,3.0,9.0,90,0.00,,,0.00,0.0,meteohub,2013-08-24 13:11:00,
2013-08-24 06:16:00,56.8,54.0,29.97,WNW,288,5.0,9.0,90,0.00,,,0.00,0.0,meteohub,2013-08-24 13:16:00,
2013-08-24 06:21:00,56.8,54.0,29.97,WSW,240,0.0,9.0,90,0.00,,,0.00,0.0,meteohub,2013-08-24 13:21:00,
2013-08-24 06:26:00,56.8,54.0,29.97,WSW,248,1.0,5.0,90,0.00,,,0.00,0.0,meteohub,2013-08-24 13:26:00,
2013-08-24 06:31:00,56.8,54.0,29.97,SSW,207,0.0,8.0,90,0.00,,,0.00,0.0,meteohub,2013-08-24 13:31:00,
2013-08-24 06:36:00,56.8,54.0,29.98,SW,232,2.0,8.0,90,0.00,,,0.00,0.0,meteohub,2013-08-24 13:36:00,
2013-08-24 06:41:00,56.8,54.0,29.98,West,259,2.0,6.0,90,0.00,,,0.00,0.0,meteohub,2013-08-24 13:41:00,
2013-08-24 06:46:00,56.8,54.0,29.98,WSW,237,3.0,6.0,90,0.00,,,0.00,9.0,meteohub,2013-08-24 13:46:00,
2013-08-24 06:51:00,56.8,54.0,29.98,WSW,254,6.0,10.0,90,0.00,,,0.00,12.0,meteohub,2013-08-24 13:51:00,
2013-08-24 06:56:00,56.8,54.3,29.98,West,259,2.0,10.0,91,0.00,,,0.00,9.0,meteohub,2013-08-24 13:56:00,
2013-08-24 07:01:00,56.8,54.3,29.98,SW,223,3.0,10.0,91,0.00,,,0.00,18.0,meteohub,2013-08-24 14:01:00,
2013-08-24 07:06:00,56.8,54.3,29.98,West,273,4.0,10.0,91,0.00,,,0.00,12.0,meteohub,2013-08-24 14:06:00,
2013-08-24 07:11:00,57.0,54.5,29.98,WSW,247,3.0,10.0,91,0.00,,,0.00,16.0,meteohub,2013-08-24 14:11:00,
2013-08-24 07:16:00,57.0,54.5,29.99,WNW,298,5.0,10.0,91,0.00,,,0.00,30.0,meteohub,2013-08-24 14:16:00,
2013-08-24 07:21:00,57.0,54.5,29.98,WSW,237,2.0,10.0,91,0.00,,,0.00,30.0,meteohub,2013-08-24 14:21:00,
2013-08-24 07:27:00,57.2,54.7,29.98,West,265,5.0,10.0,91,0.00,,,0.00,19.0,meteohub,2013-08-24 14:27:00,
2013-08-24 07:32:00,57.2,54.3,29.99,SW,231,2.0,11.0,90,0.00,,,0.00,16.0,meteohub,2013-08-24 14:32:00,
2013-08-24 07:37:00,57.2,54.3,29.99,SW,225,3.0,11.0,90,0.00,,,0.00,18.0,meteohub,2013-08-24 14:37:00,
2013-08-24 07:42:00,57.2,54.3,29.99,SSW,213,4.0,11.0,90,0.00,,,0.00,16.0,meteohub,2013-08-24 14:42:00,
2013-08-24 07:47:00,57.4,54.5,29.99,SSW,213,7.0,9.0,90,0.00,,,0.00,16.0,meteohub,2013-08-24 14:47:00,
2013-08-24 07:52:00,57.4,54.1,29.99,WSW,253,6.0,9.0,89,0.00,,,0.00,16.0,meteohub,2013-08-24 14:52:00,
2013-08-24 07:57:00,57.6,54.3,29.99,SSW,196,8.0,9.0,89,0.00,,,0.00,16.0,meteohub,2013-08-24 14:57:00,
2013-08-24 08:02:00,57.7,54.5,29.99,WSW,250,3.0,13.0,89,0.00,,,0.00,18.0,meteohub,2013-08-24 15:02:00,
2013-08-24 08:07:00,57.7,54.1,29.99,SW,231,4.0,13.0,88,0.00,,,0.00,18.0,meteohub,2013-08-24 15:07:00,
2013-08-24 08:12:00,57.9,54.3,29.99,WNW,284,1.0,11.0,88,0.00,,,0.00,18.0,meteohub,2013-08-24 15:12:00,
2013-08-24 08:17:00,58.3,54.5,29.99,West,270,0.0,11.0,87,0.00,,,0.00,18.0,meteohub,2013-08-24 15:17:00,
2013-08-24 08:22:00,58.5,54.7,29.99,East,97,0.0,9.0,87,0.00,,,0.00,18.0,meteohub,2013-08-24 15:22:00,
2013-08-24 08:27:00,58.6,54.5,29.99,SSW,195,1.0,10.0,86,0.00,,,0.00,19.0,meteohub,2013-08-24 15:27:00,
2013-08-24 08:32:00,58.6,54.5,30.00,SW,224,6.0,10.0,86,0.00,,,0.00,19.0,meteohub,2013-08-24 15:32:00,
2013-08-24 08:37:00,58.8,54.7,30.00,SW,229,5.0,10.0,86,0.00,,,0.00,19.0,meteohub,2013-08-24 15:37:00,
2013-08-24 08:42:00,59.2,54.7,30.00,SSW,213,1.0,9.0,85,0.00,,,0.00,19.0,meteohub,2013-08-24 15:42:00,
2013-08-24 08:47:00,59.2,54.7,30.00,West,265,5.0,9.0,85,0.00,,,0.00,19.0,meteohub,2013-08-24 15:47:00,
2013-08-24 08:52:00,59.4,54.9,29.99,WSW,258,3.0,9.0,85,0.00,,,0.00,19.0,meteohub,2013-08-24 15:52:00,
2013-08-24 08:57:00,59.5,55.0,30.00,SW,226,6.0,9.0,85,0.00,,,0.00,21.0,meteohub,2013-08-24 15:57:00,
2013-08-24 09:02:00,59.7,54.9,30.00,WSW,253,6.0,9.0,84,0.00,,,0.00,21.0,meteohub,2013-08-24 16:02:00,
2013-08-24 09:07:00,60.3,55.0,30.00,SW,229,2.0,9.0,83,0.00,,,0.00,21.0,meteohub,2013-08-24 16:07:00,
2013-08-24 09:12:00,60.4,55.2,30.00,WSW,244,1.0,9.0,83,0.00,,,0.00,21.0,meteohub,2013-08-24 16:12:00,
2013-08-24 09:17:00,60.8,55.2,30.00,WNW,295,2.0,9.0,82,0.00,,,0.00,21.0,meteohub,2013-08-24 16:17:00,
2013-08-24 09:22:00,61.2,55.2,30.00,NW,306,4.0,7.0,81,0.00,,,0.00,21.0,meteohub,2013-08-24 16:22:00,
2013-08-24 09:27:00,61.3,55.0,30.00,SW,219,4.0,8.0,80,0.00,,,0.00,23.0,meteohub,2013-08-24 16:27:00,
2013-08-24 09:32:00,61.9,55.2,30.00,West,271,3.0,8.0,79,0.00,,,0.00,23.0,meteohub,2013-08-24 16:32:00,
2013-08-24 09:37:00,62.4,55.4,30.00,WSW,244,4.0,8.0,78,0.00,,,0.00,23.0,meteohub,2013-08-24 16:37:00,
2013-08-24 09:42:00,63.0,54.9,30.00,WSW,255,6.0,8.0,75,0.00,,,0.00,23.0,meteohub,2013-08-24 16:42:00,
2013-08-24 09:47:00,63.5,54.7,30.00,SSW,210,5.0,9.0,73,0.00,,,0.00,25.0,meteohub,2013-08-24 16:47:00,
2013-08-24 09:52:00,64.2,54.7,30.00,WSW,243,5.0,9.0,71,0.00,,,0.00,25.0,meteohub,2013-08-24 16:52:00,
2013-08-24 09:57:00,65.1,54.7,30.00,WNW,294,4.0,9.0,69,0.00,,,0.00,28.0,meteohub,2013-08-24 16:57:00,
2013-08-24 10:02:00,65.8,54.5,30.01,WSW,257,5.0,10.0,67,0.00,,,0.00,28.0,meteohub,2013-08-24 17:02:00,
2013-08-24 10:07:00,66.0,54.3,30.01,WSW,249,6.0,11.0,66,0.00,,,0.00,26.0,meteohub,2013-08-24 17:07:00,
2013-08-24 10:12:00,66.4,55.0,30.01,SW,227,9.0,13.0,67,0.00,,,0.00,53.0,meteohub,2013-08-24 17:12:00,
2013-08-24 10:17:00,66.6,55.6,30.01,West,277,6.0,13.0,68,0.00,,,0.00,30.0,meteohub,2013-08-24 17:17:00,
2013-08-24 10:22:00,66.7,55.8,30.01,West,263,5.0,13.0,68,0.00,,,0.00,30.0,meteohub,2013-08-24 17:22:00,
2013-08-24 10:27:00,66.9,55.6,30.01,SW,227,4.0,15.0,67,0.00,,,0.00,33.0,meteohub,2013-08-24 17:27:00,
2013-08-24 10:32:00,67.3,56.3,30.01,WSW,245,6.0,15.0,68,0.00,,,0.00,35.0,meteohub,2013-08-24 17:32:00,
2013-08-24 10:37:00,67.3,56.3,30.01,SW,227,6.0,12.0,68,0.00,,,0.00,35.0,meteohub,2013-08-24 17:37:00,
2013-08-24 10:42:00,67.6,56.3,30.01,WSW,239,6.0,12.0,67,0.00,,,0.00,37.0,meteohub,2013-08-24 17:42:00,
2013-08-24 10:47:00,67.8,56.5,30.01,SW,229,7.0,12.0,67,0.00,,,0.00,37.0,meteohub,2013-08-24 17:47:00,
2013-08-24 10:52:00,68.2,56.3,30.01,WSW,247,8.0,12.0,66,0.00,,,0.00,39.0,meteohub,2013-08-24 17:52:00,
2013-08-24 10:57:00,69.3,57.0,30.01,WSW,237,9.0,12.0,65,0.00,,,0.00,40.0,meteohub,2013-08-24 17:57:00,
2013-08-24 11:02:00,70.0,56.8,30.01,WSW,238,3.0,11.0,63,0.00,,,0.00,40.0,meteohub,2013-08-24 18:02:00,
2013-08-24 11:07:00,70.5,56.8,30.01,WSW,248,4.0,10.0,62,0.00,,,0.00,42.0,meteohub,2013-08-24 18:07:00,
2013-08-24 11:12:00,71.2,57.0,30.01,WNW,294,5.0,11.0,61,0.00,,,0.00,42.0,meteohub,2013-08-24 18:12:00,
2013-08-24 11:17:00,72.0,57.4,30.01,NW,306,5.0,11.0,60,0.00,,,0.00,44.0,meteohub,2013-08-24 18:17:00,
2013-08-24 11:22:00,72.1,57.0,30.01,SW,229,3.0,11.0,59,0.00,,,0.00,44.0,meteohub,2013-08-24 18:22:00,
2013-08-24 11:27:00,72.7,57.9,30.01,SSW,208,5.0,11.0,60,0.00,,,0.00,44.0,meteohub,2013-08-24 18:27:00,
2013-08-24 11:32:00,73.0,57.9,30.01,West,259,3.0,12.0,59,0.00,,,0.00,46.0,meteohub,2013-08-24 18:32:00,
2013-08-24 11:37:00,73.9,57.2,30.01,West,265,4.0,12.0,56,0.00,,,0.00,47.0,meteohub,2013-08-24 18:37:00,
2013-08-24 11:42:00,74.7,57.9,30.01,WSW,240,5.0,11.0,56,0.00,,,0.00,162.0,meteohub,2013-08-24 18:42:00,
2013-08-24 11:47:00,74.7,58.5,30.01,SW,234,7.0,11.0,57,0.00,,,0.00,545.0,meteohub,2013-08-24 18:47:00,
2013-08-24 11:52:00,74.7,58.8,30.01,WSW,244,12.0,12.0,58,0.00,,,0.00,786.0,meteohub,2013-08-24 18:52:00,
2013-08-24 11:57:00,74.8,58.6,30.01,West,279,6.0,12.0,57,0.00,,,0.00,796.0,meteohub,2013-08-24 18:57:00,
2013-08-24 12:02:00,74.7,58.5,30.00,SW,224,5.0,12.0,57,0.00,,,0.00,802.0,meteohub,2013-08-24 19:02:00,
2013-08-24 12:07:00,74.8,58.1,30.01,WSW,250,6.0,13.0,56,0.00,,,0.00,810.0,meteohub,2013-08-24 19:07:00,
2013-08-24 12:12:00,75.4,58.1,30.00,WNW,286,5.0,13.0,55,0.00,,,0.00,816.0,meteohub,2013-08-24 19:12:00,
2013-08-24 12:17:00,76.1,58.3,30.00,WSW,244,5.0,13.0,54,0.00,,,0.00,824.0,meteohub,2013-08-24 19:17:00,
2013-08-24 12:22:00,76.5,58.1,30.00,WSW,238,7.0,12.0,53,0.00,,,0.00,830.0,meteohub,2013-08-24 19:22:00,
2013-08-24 12:27:00,76.8,59.0,30.00,WSW,254,6.0,12.0,54,0.00,,,0.00,835.0,meteohub,2013-08-24 19:27:00,
2013-08-24 12:32:00,77.5,58.5,30.00,WNW,282,5.0,12.0,52,0.00,,,0.00,844.0,meteohub,2013-08-24 19:32:00,
2013-08-24 12:37:00,77.7,58.1,30.00,WSW,248,8.0,11.0,51,0.00,,,0.00,853.0,meteohub,2013-08-24 19:37:00,
2013-08-24 12:42:00,78.1,58.5,30.00,WSW,246,7.0,11.0,51,0.00,,,0.00,870.0,meteohub,2013-08-24 19:42:00,
2013-08-24 12:47:00,78.6,58.5,30.00,WSW,246,5.0,11.0,50,0.00,,,0.00,891.0,meteohub,2013-08-24 19:47:00,
2013-08-24 12:52:00,78.6,57.9,30.00,SW,222,5.0,12.0,49,0.00,,,0.00,921.0,meteohub,2013-08-24 19:52:00,
2013-08-24 12:57:00,78.6,57.9,30.00,WSW,256,2.0,12.0,49,0.00,,,0.00,561.0,meteohub,2013-08-24 19:57:00,
2013-08-24 13:02:00,78.1,57.9,30.00,SW,230,4.0,12.0,50,0.00,,,0.00,559.0,meteohub,2013-08-24 20:02:00,
2013-08-24 13:07:00,77.7,57.6,30.00,SW,232,6.0,12.0,50,0.00,,,0.00,598.0,meteohub,2013-08-24 20:07:00,
2013-08-24 13:12:00,77.9,57.7,30.00,West,263,4.0,10.0,50,0.00,,,0.00,766.0,meteohub,2013-08-24 20:12:00,
2013-08-24 13:17:00,78.4,58.3,30.00,WSW,239,10.0,10.0,50,0.00,,,0.00,802.0,meteohub,2013-08-24 20:17:00,
2013-08-24 13:22:00,78.4,57.7,30.00,West,259,6.0,13.0,49,0.00,,,0.00,865.0,meteohub,2013-08-24 20:22:00,
2013-08-24 13:27:00,79.2,57.7,30.00,SW,221,6.0,13.0,48,0.00,,,0.00,846.0,meteohub,2013-08-24 20:27:00,
2013-08-24 13:32:00,79.5,58.6,30.00,WSW,251,4.0,13.0,49,0.00,,,0.00,847.0,meteohub,2013-08-24 20:32:00,
2013-08-24 13:37:00,79.7,57.7,30.00,SW,220,10.0,13.0,47,0.00,,,0.00,844.0,meteohub,2013-08-24 20:37:00,
2013-08-24 13:42:00,79.5,58.1,30.00,SW,235,10.0,13.0,48,0.00,,,0.00,856.0,meteohub,2013-08-24 20:42:00,
2013-08-24 13:47:00,79.2,58.3,30.00,SW,234,5.0,12.0,49,0.00,,,0.00,851.0,meteohub,2013-08-24 20:47:00,
2013-08-24 13:52:00,79.0,58.8,30.00,SSW,211,3.0,12.0,50,0.00,,,0.00,719.0,meteohub,2013-08-24 20:52:00,
2013-08-24 13:57:00,79.3,58.5,30.00,WSW,237,10.0,12.0,49,0.00,,,0.00,846.0,meteohub,2013-08-24 20:57:00,
2013-08-24 14:02:00,79.3,59.0,29.99,West,278,6.0,12.0,50,0.00,,,0.00,846.0,meteohub,2013-08-24 21:02:00,
2013-08-24 14:07:00,79.3,58.5,29.99,WSW,248,7.0,12.0,49,0.00,,,0.00,847.0,meteohub,2013-08-24 21:07:00,
2013-08-24 14:12:00,79.3,58.5,29.99,SW,221,6.0,11.0,49,0.00,,,0.00,798.0,meteohub,2013-08-24 21:12:00,
2013-08-24 14:17:00,79.3,57.9,30.00,WSW,246,8.0,10.0,48,0.00,,,0.00,860.0,meteohub,2013-08-24 21:17:00,
2013-08-24 14:22:00,79.5,58.6,30.00,WSW,243,10.0,10.0,49,0.00,,,0.00,772.0,meteohub,2013-08-24 21:22:00,
2013-08-24 14:27:00,79.9,58.5,30.00,SW,231,3.0,11.0,48,0.00,,,0.00,823.0,meteohub,2013-08-24 21:27:00,
2013-08-24 14:32:00,80.4,59.0,29.99,SW,221,3.0,11.0,48,0.00,,,0.00,786.0,meteohub,2013-08-24 21:32:00,
2013-08-24 14:37:00,80.8,58.6,29.99,WSW,245,4.0,11.0,47,0.00,,,0.00,796.0,meteohub,2013-08-24 21:37:00,
2013-08-24 14:42:00,80.6,57.9,29.99,SW,222,7.0,12.0,46,0.00,,,0.00,824.0,meteohub,2013-08-24 21:42:00,
2013-08-24 14:47:00,81.0,58.3,29.99,WSW,248,7.0,14.0,46,0.00,,,0.00,628.0,meteohub,2013-08-24 21:47:00,
2013-08-24 14:52:00,81.1,58.5,29.99,NW,311,4.0,14.0,46,0.00,,,0.00,617.0,meteohub,2013-08-24 21:52:00,
2013-08-24 14:57:00,81.3,58.6,29.99,SW,221,4.0,11.0,46,0.00,,,0.00,642.0,meteohub,2013-08-24 21:57:00,
2013-08-24 15:02:00,80.8,58.6,29.99,WSW,246,6.0,11.0,47,0.00,,,0.00,745.0,meteohub,2013-08-24 22:02:00,
2013-08-24 15:07:00,80.2,58.1,29.98,West,270,3.0,10.0,47,0.00,,,0.00,800.0,meteohub,2013-08-24 22:07:00,
2013-08-24 15:12:00,80.8,58.6,29.99,WNW,288,3.0,10.0,47,0.00,,,0.00,789.0,meteohub,2013-08-24 22:12:00,
2013-08-24 15:17:00,80.8,58.6,29.98,West,263,10.0,10.0,47,0.00,,,0.00,603.0,meteohub,2013-08-24 22:17:00,
2013-08-24 15:22:00,80.6,58.5,29.99,WSW,241,5.0,11.0,47,0.00,,,0.00,684.0,meteohub,2013-08-24 22:22:00,
2013-08-24 15:27:00,80.6,59.2,29.98,WNW,284,4.0,11.0,48,0.00,,,0.00,636.0,meteohub,2013-08-24 22:27:00,
2013-08-24 15:32:00,80.1,58.1,29.98,WSW,248,5.0,11.0,47,0.00,,,0.00,645.0,meteohub,2013-08-24 22:32:00,
2013-08-24 15:37:00,79.2,58.3,29.98,SSW,207,5.0,11.0,49,0.00,,,0.00,452.0,meteohub,2013-08-24 22:37:00,
2013-08-24 15:42:00,79.0,58.8,29.98,SW,221,5.0,11.0,50,0.00,,,0.00,659.0,meteohub,2013-08-24 22:42:00,
2013-08-24 15:47:00,78.6,58.5,29.98,SW,218,3.0,12.0,50,0.00,,,0.00,592.0,meteohub,2013-08-24 22:47:00,
2013-08-24 15:52:00,78.6,58.5,29.98,West,271,4.0,12.0,50,0.00,,,0.00,628.0,meteohub,2013-08-24 22:52:00,
2013-08-24 15:57:00,78.3,58.1,29.98,West,275,5.0,12.0,50,0.00,,,0.00,534.0,meteohub,2013-08-24 22:57:00,
2013-08-24 16:02:00,78.8,59.2,29.98,WSW,238,5.0,10.0,51,0.00,,,0.00,624.0,meteohub,2013-08-24 23:02:00,
2013-08-24 16:07:00,79.0,58.8,29.98,SW,234,5.0,10.0,50,0.00,,,0.00,652.0,meteohub,2013-08-24 23:07:00,
2013-08-24 16:12:00,79.3,58.5,29.98,SW,226,7.0,10.0,49,0.00,,,0.00,650.0,meteohub,2013-08-24 23:12:00,
2013-08-24 16:17:00,79.2,58.3,29.98,SW,236,5.0,11.0,49,0.00,,,0.00,631.0,meteohub,2013-08-24 23:17:00,
2013-08-24 16:22:00,78.8,58.1,29.98,SSW,212,7.0,11.0,49,0.00,,,0.00,624.0,meteohub,2013-08-24 23:22:00,
2013-08-24 16:27:00,78.6,58.5,29.98,SW,235,13.0,13.0,50,0.00,,,0.00,585.0,meteohub,2013-08-24 23:27:00,
2013-08-24 16:32:00,78.6,58.5,29.98,WSW,239,5.0,13.0,50,0.00,,,0.00,599.0,meteohub,2013-08-24 23:32:00,
2013-08-24 16:37:00,78.8,58.6,29.98,WSW,242,8.0,13.0,50,0.00,,,0.00,573.0,meteohub,2013-08-24 23:37:00,
2013-08-24 16:42:00,79.0,58.8,29.98,West,270,7.0,13.0,50,0.00,,,0.00,573.0,meteohub,2013-08-24 23:42:00,
2013-08-24 16:47:00,78.6,58.5,29.98,SW,234,7.0,11.0,50,0.00,,,0.00,515.0,meteohub,2013-08-24 23:47:00,
2013-08-24 16:52:00,78.3,58.1,29.98,WSW,250,5.0,11.0,50,0.00,,,0.00,418.0,meteohub,2013-08-24 23:52:00,
2013-08-24 16:57:00,78.1,58.5,29.98,WSW,254,6.0,13.0,51,0.00,,,0.00,550.0,meteohub,2013-08-24 23:57:00,
2013-08-24 17:02:00,77.7,58.1,29.98,West,275,6.0,13.0,51,0.00,,,0.00,524.0,meteohub,2013-08-25 00:02:00,
2013-08-24 17:07:00,77.7,58.6,29.98,SW,231,9.0,10.0,52,0.00,,,0.00,503.0,meteohub,2013-08-25 00:07:00,
2013-08-24 17:12:00,77.9,58.3,29.97,WSW,258,6.0,11.0,51,0.00,,,0.00,459.0,meteohub,2013-08-25 00:12:00,
2013-08-24 17:17:00,77.9,58.3,29.98,West,275,5.0,11.0,51,0.00,,,0.00,448.0,meteohub,2013-08-25 00:17:00,
2013-08-24 17:22:00,77.7,58.6,29.98,West,278,5.0,11.0,52,0.00,,,0.00,473.0,meteohub,2013-08-25 00:22:00,
2013-08-24 17:27:00,77.4,58.3,29.98,WSW,237,7.0,13.0,52,0.00,,,0.00,446.0,meteohub,2013-08-25 00:27:00,
2013-08-24 17:32:00,76.5,58.1,29.98,SW,235,1.0,13.0,53,0.00,,,0.00,299.0,meteohub,2013-08-25 00:32:00,
2013-08-24 17:37:00,76.1,58.3,29.98,WSW,246,9.0,13.0,54,0.00,,,0.00,394.0,meteohub,2013-08-25 00:37:00,
2013-08-24 17:42:00,75.7,58.5,29.98,NW,308,4.0,13.0,55,0.00,,,0.00,227.0,meteohub,2013-08-25 00:42:00,
2013-08-24 17:47:00,75.2,57.9,29.98,SW,215,7.0,10.0,55,0.00,,,0.00,297.0,meteohub,2013-08-25 00:47:00,
2013-08-24 17:52:00,74.8,58.1,29.98,SSW,194,6.0,10.0,56,0.00,,,0.00,364.0,meteohub,2013-08-25 00:52:00,
2013-08-24 17:57:00,75.0,58.8,29.98,West,279,5.0,10.0,57,0.00,,,0.00,339.0,meteohub,2013-08-25 00:57:00,
2013-08-24 18:02:00,75.0,58.3,29.97,West,259,4.0,10.0,56,0.00,,,0.00,350.0,meteohub,2013-08-25 01:02:00,
2013-08-24 18:07:00,74.8,58.6,29.97,West,266,5.0,11.0,57,0.00,,,0.00,343.0,meteohub,2013-08-25 01:07:00,
2013-08-24 18:12:00,74.8,58.6,29.97,WSW,244,4.0,11.0,57,0.00,,,0.00,325.0,meteohub,2013-08-25 01:12:00,
2013-08-24 18:17:00,74.8,58.6,29.97,WSW,237,10.0,11.0,57,0.00,,,0.00,295.0,meteohub,2013-08-25 01:17:00,
2013-08-24 18:22:00,74.5,58.3,29.97,WSW,257,8.0,12.0,57,0.00,,,0.00,272.0,meteohub,2013-08-25 01:22:00,
2013-08-24 18:27:00,73.6,57.9,29.97,WSW,247,6.0,13.0,58,0.00,,,0.00,237.0,meteohub,2013-08-25 01:27:00,
2013-08-24 18:32:00,73.2,58.1,29.97,WSW,238,7.0,13.0,59,0.00,,,0.00,227.0,meteohub,2013-08-25 01:32:00,
2013-08-24 18:37:00,72.9,58.1,29.97,WSW,238,7.0,13.0,60,0.00,,,0.00,209.0,meteohub,2013-08-25 01:37:00,
2013-08-24 18:42:00,72.9,58.1,29.97,WSW,250,5.0,12.0,60,0.00,,,0.00,197.0,meteohub,2013-08-25 01:42:00,
2013-08-24 18:47:00,72.7,57.9,29.97,WSW,237,6.0,11.0,60,0.00,,,0.00,183.0,meteohub,2013-08-25 01:47:00,
2013-08-24 18:52:00,72.3,58.1,29.97,West,261,5.0,13.0,61,0.00,,,0.00,167.0,meteohub,2013-08-25 01:52:00,
2013-08-24 18:57:00,72.0,57.7,29.97,SW,215,12.0,13.0,61,0.00,,,0.00,158.0,meteohub,2013-08-25 01:57:00,
2013-08-24 19:02:00,71.4,57.7,29.97,SW,225,6.0,13.0,62,0.00,,,0.00,141.0,meteohub,2013-08-25 02:02:00,
2013-08-24 19:07:00,71.1,57.7,29.97,SW,235,7.0,12.0,63,0.00,,,0.00,79.0,meteohub,2013-08-25 02:07:00,
2013-08-24 19:12:00,70.3,57.6,29.97,WSW,241,4.0,12.0,64,0.00,,,0.00,86.0,meteohub,2013-08-25 02:12:00,
2013-08-24 19:17:00,69.8,57.6,29.97,West,259,5.0,10.0,65,0.00,,,0.00,42.0,meteohub,2013-08-25 02:17:00,
2013-08-24 19:22:00,69.4,57.6,29.97,WSW,254,7.0,10.0,66,0.00,,,0.00,30.0,meteohub,2013-08-25 02:22:00,
2013-08-24 19:27:00,68.9,57.6,29.97,SW,229,3.0,9.0,67,0.00,,,0.00,16.0,meteohub,2013-08-25 02:27:00,
2013-08-24 19:32:00,68.5,57.2,29.98,WSW,240,2.0,7.0,67,0.00,,,0.00,11.0,meteohub,2013-08-25 02:32:00,
2013-08-24 19:37:00,68.2,57.2,29.98,SSW,209,4.0,7.0,68,0.00,,,0.00,5.0,meteohub,2013-08-25 02:37:00,
2013-08-24 19:42:00,67.6,57.0,29.98,West,260,4.0,8.0,69,0.00,,,0.00,5.0,meteohub,2013-08-25 02:42:00,
2013-08-24 19:47:00,66.9,56.8,29.98,SW,225,4.0,8.0,70,0.00,,,0.00,0.0,meteohub,2013-08-25 02:47:00,
2013-08-24 19:52:00,66.6,56.5,29.98,WSW,255,6.0,8.0,70,0.00,,,0.00,0.0,meteohub,2013-08-25 02:52:00,
2013-08-24 19:57:00,65.8,56.1,29.98,West,274,5.0,10.0,71,0.00,,,0.00,0.0,meteohub,2013-08-25 02:57:00,
2013-08-24 20:02:00,65.5,56.3,29.98,SW,236,4.0,10.0,72,0.00,,,0.00,0.0,meteohub,2013-08-25 03:02:00,
2013-08-24 20:07:00,64.9,56.1,29.98,WSW,253,6.0,10.0,73,0.00,,,0.00,0.0,meteohub,2013-08-25 03:07:00,
2013-08-24 20:12:00,64.6,56.1,29.98,WNW,287,7.0,11.0,74,0.00,,,0.00,0.0,meteohub,2013-08-25 03:12:00,
2013-08-24 20:17:00,64.2,56.1,29.98,WSW,238,7.0,11.0,75,0.00,,,0.00,0.0,meteohub,2013-08-25 03:17:00,
2013-08-24 20:22:00,64.0,56.3,29.98,WSW,247,8.0,11.0,76,0.00,,,0.00,0.0,meteohub,2013-08-25 03:22:00,
2013-08-24 20:27:00,64.0,56.3,29.99,SSW,210,5.0,11.0,76,0.00,,,0.00,0.0,meteohub,2013-08-25 03:27:00,
2013-08-24 20:32:00,63.9,56.5,29.99,West,279,6.0,11.0,77,0.00,,,0.00,0.0,meteohub,2013-08-25 03:32:00,
2013-08-24 20:37:00,63.7,56.3,29.99,SW,232,4.0,10.0,77,0.00,,,0.00,0.0,meteohub,2013-08-25 03:37:00,
2013-08-24 20:42:00,63.7,56.3,29.99,WSW,258,5.0,9.0,77,0.00,,,0.00,0.0,meteohub,2013-08-25 03:42:00,
2013-08-24 20:47:00,63.5,56.5,29.99,WSW,252,3.0,8.0,78,0.00,,,0.00,0.0,meteohub,2013-08-25 03:47:00,
2013-08-24 20:52:00,63.5,56.5,29.99,SW,224,4.0,8.0,78,0.00,,,0.00,0.0,meteohub,2013-08-25 03:52:00,
2013-08-24 20:57:00,63.5,56.5,29.99,SW,232,3.0,8.0,78,0.00,,,0.00,0.0,meteohub,2013-08-25 03:57:00,
2013-08-24 21:01:00,63.5,56.5,29.99,WSW,243,2.0,6.0,78,0.00,,,0.00,0.0,meteohub,2013-08-25 04:01:00,
2013-08-24 21:02:00,63.7,56.7,29.99,WSW,242,2.0,6.0,78,0.00,,,0.00,0.0,meteohub,2013-08-25 04:02:00,
2013-08-24 21:05:00,63.7,56.7,29.99,SW,225,3.0,6.0,78,0.00,,,0.00,0.0,meteohub,2013-08-25 04:05:00,
2013-08-24 21:08:00,63.7,56.7,29.99,WSW,244,4.0,8.0,78,0.00,,,0.00,0.0,meteohub,2013-08-25 04:08:00,
2013-08-24 21:13:00,63.7,56.7,29.99,WSW,243,3.0,8.0,78,0.00,,,0.00,0.0,meteohub,2013-08-25 04:13:00,
2013-08-24 21:18:00,63.7,56.7,30.00,West,259,3.0,7.0,78,0.00,,,0.00,0.0,meteohub,2013-08-25 04:18:00,
2013-08-24 21:23:00,63.3,56.7,30.00,West,275,3.0,6.0,79,0.00,,,0.00,0.0,meteohub,2013-08-25 04:23:00,
2013-08-24 21:29:00,63.1,56.5,30.00,WSW,254,2.0,6.0,79,0.00,,,0.00,0.0,meteohub,2013-08-25 04:29:00,
2013-08-24 21:34:00,63.0,56.3,30.00,West,279,8.0,8.0,79,0.00,,,0.00,0.0,meteohub,2013-08-25 04:34:00,
2013-08-24 21:39:00,62.6,56.3,30.00,WSW,254,8.0,8.0,80,0.00,,,0.00,0.0,meteohub,2013-08-25 04:39:00,
2013-08-24 21:44:00,62.2,56.3,30.01,West,267,4.0,8.0,81,0.00,,,0.00,0.0,meteohub,2013-08-25 04:44:00,
2013-08-24 21:49:00,61.9,56.3,30.01,North,355,6.0,12.0,82,0.00,,,0.00,0.0,meteohub,2013-08-25 04:49:00,
2013-08-24 21:54:00,61.7,56.1,30.01,West,266,3.0,12.0,82,0.00,,,0.00,0.0,meteohub,2013-08-25 04:54:00,
2013-08-24 21:59:00,61.3,56.1,30.01,West,278,4.0,9.0,83,0.00,,,0.00,0.0,meteohub,2013-08-25 04:59:00,
2013-08-24 22:04:00,61.3,56.5,30.01,WNW,287,3.0,10.0,84,0.00,,,0.00,0.0,meteohub,2013-08-25 05:04:00,
2013-08-24 22:09:00,61.3,56.5,30.01,West,272,5.0,10.0,84,0.00,,,0.00,0.0,meteohub,2013-08-25 05:09:00,
2013-08-24 22:14:00,61.2,56.3,30.01,WNW,294,3.0,7.0,84,0.00,,,0.00,0.0,meteohub,2013-08-25 05:14:00,
2013-08-24 22:19:00,61.2,56.7,30.01,WSW,238,2.0,7.0,85,0.00,,,0.00,0.0,meteohub,2013-08-25 05:19:00,
2013-08-24 22:24:00,61.2,56.7,30.01,SW,224,1.0,8.0,85,0.00,,,0.00,0.0,meteohub,2013-08-25 05:24:00,
2013-08-24 22:29:00,61.2,56.7,30.01,WSW,249,6.0,8.0,85,0.00,,,0.00,0.0,meteohub,2013-08-25 05:29:00,
2013-08-24 22:34:00,61.0,56.8,30.01,SW,219,1.0,8.0,86,0.00,,,0.00,0.0,meteohub,2013-08-25 05:34:00,
2013-08-24 22:39:00,61.0,56.8,30.01,SW,231,1.0,7.0,86,0.00,,,0.00,0.0,meteohub,2013-08-25 05:39:00,
2013-08-24 22:44:00,61.0,56.8,30.01,SW,229,1.0,7.0,86,0.00,,,0.00,0.0,meteohub,2013-08-25 05:44:00,
2013-08-24 22:50:00,60.8,56.7,30.01,SW,219,2.0,7.0,86,0.00,,,0.00,0.0,meteohub,2013-08-25 05:50:00,
2013-08-24 22:55:00,60.8,56.7,30.01,SW,226,1.0,7.0,86,0.00,,,0.00,0.0,meteohub,2013-08-25 05:55:00,
2013-08-24 23:00:00,60.8,56.7,30.02,SW,226,0.0,5.0,86,0.00,,,0.00,0.0,meteohub,2013-08-25 06:00:00,
2013-08-24 23:05:00,60.8,56.7,30.02,SW,226,0.0,5.0,86,0.00,,,0.00,0.0,meteohub,2013-08-25 06:05:00,
2013-08-24 23:10:00,60.8,56.7,30.02,SSW,194,0.0,3.0,86,0.00,,,0.00,0.0,meteohub,2013-08-25 06:10:00,
2013-08-24 23:15:00,60.8,56.7,30.02,WSW,249,4.0,4.0,86,0.00,,,0.00,0.0,meteohub,2013-08-25 06:15:00,
2013-08-24 23:20:00,60.6,56.5,30.02,SW,223,0.0,5.0,86,0.00,,,0.00,0.0,meteohub,2013-08-25 06:20:00,
2013-08-24 23:25:00,60.6,56.5,30.02,WSW,258,1.0,5.0,86,0.00,,,0.00,0.0,meteohub,2013-08-25 06:25:00,
2013-08-24 23:30:00,60.6,56.7,30.02,SW,229,3.0,4.0,87,0.00,,,0.00,0.0,meteohub,2013-08-25 06:30:00,
2013-08-24 23:35:00,60.4,56.5,30.02,SW,229,0.0,6.0,87,0.00,,,0.00,0.0,meteohub,2013-08-25 06:35:00,
2013-08-24 23:40:00,60.4,56.5,30.02,SW,229,0.0,6.0,87,0.00,,,0.00,0.0,meteohub,2013-08-25 06:40:00,
2013-08-24 23:45:00,60.4,56.5,30.02,SW,229,0.0,4.0,87,0.00,,,0.00,0.0,meteohub,2013-08-25 06:45:00,
2013-08-24 23:50:00,60.4,56.5,30.02,SW,229,1.0,3.0,87,0.00,,,0.00,0.0,meteohub,2013-08-25 06:50:00,
2013-08-24 23:56:00,60.4,56.5,30.02,WSW,241,0.0,3.0,87,0.00,,,0.00,0.0,meteohub,2013-08-25 06:56:00,